FFT3051 KBNA-KDFW
Flight info
| Callsign | FFT3051 |
|---|---|
| Flight time | N/A |
| Altitude | 38000 |
| Route | DANLS4 TPEEE LIT FEWWW SEEVR4 |
| Aircraft | A20N/M-SDE2E3FGHIRWXY/LB1 |
Departure
| Time | 2026-05-04 17:10 |
|---|---|
| Airport | Nashville International Airport (KBNA) |
Arrival
| Time | N/A |
|---|---|
| Airport | Dallas Fort Worth International Airport (KDFW) |
| Time | Latitude | Longitude | Altitude | Speed | Heading |
|---|---|---|---|---|---|
| 2026-05-04 16:45 | 36.13007 | -86.67037 | 608 ft | 0 kts | 113° |
| 2026-05-04 17:02 | 36.13012 | -86.67050 | 608 ft | 2 kts | 113° |
| 2026-05-04 17:02 | 36.13024 | -86.67084 | 608 ft | 2 kts | 125° |
| 2026-05-04 17:03 | 36.13036 | -86.67095 | 608 ft | 2 kts | 164° |
| 2026-05-04 17:03 | 36.13051 | -86.67096 | 608 ft | 1 kts | 199° |
| 2026-05-04 17:03 | 36.13060 | -86.67090 | 608 ft | 0 kts | 207° |
| 2026-05-04 17:06 | 36.12961 | -86.67187 | 608 ft | 17 kts | 222° |
| 2026-05-04 17:06 | 36.12851 | -86.67275 | 608 ft | 18 kts | 221° |
| 2026-05-04 17:07 | 36.12681 | -86.67453 | 608 ft | 3 kts | 208° |
| 2026-05-04 17:07 | 36.12659 | -86.67468 | 608 ft | 10 kts | 208° |
| 2026-05-04 17:07 | 36.12532 | -86.67584 | 608 ft | 17 kts | 223° |
| 2026-05-04 17:07 | 36.12437 | -86.67676 | 608 ft | 17 kts | 200° |
| 2026-05-04 17:08 | 36.12360 | -86.67762 | 608 ft | 16 kts | 274° |
| 2026-05-04 17:08 | 36.12383 | -86.67855 | 608 ft | 0 kts | 288° |
| 2026-05-04 17:09 | 36.12395 | -86.67939 | 608 ft | 18 kts | 247° |
| 2026-05-04 17:09 | 36.12228 | -86.68039 | 608 ft | 55 kts | 198° |
| 2026-05-04 17:09 | 36.11625 | -86.68281 | 608 ft | 123 kts | 197° |
| 2026-05-04 17:10 | 36.09621 | -86.69074 | 1444 ft | 159 kts | 199° |
| 2026-05-04 17:10 | 36.07772 | -86.72195 | 3177 ft | 181 kts | 252° |
| 2026-05-04 17:11 | 36.07377 | -86.73776 | 3577 ft | 203 kts | 251° |
| 2026-05-04 17:11 | 36.06913 | -86.75515 | 3915 ft | 229 kts | 253° |
| 2026-05-04 17:11 | 36.07033 | -86.79718 | 4045 ft | 257 kts | 281° |
| 2026-05-04 17:12 | 36.07495 | -86.81874 | 4760 ft | 264 kts | 282° |
| 2026-05-04 17:12 | 36.08418 | -86.86241 | 6389 ft | 265 kts | 280° |
| 2026-05-04 17:13 | 36.08993 | -86.93105 | 8449 ft | 271 kts | 269° |
| 2026-05-04 17:14 | 36.09224 | -87.00149 | 10855 ft | 287 kts | 269° |
| 2026-05-04 17:14 | 36.09303 | -87.02676 | 11281 ft | 305 kts | 269° |
| 2026-05-04 17:14 | 36.09484 | -87.08125 | 12646 ft | 321 kts | 270° |
| 2026-05-04 17:15 | 36.09575 | -87.10864 | 13445 ft | 324 kts | 271° |
| 2026-05-04 17:15 | 36.09761 | -87.16478 | 15046 ft | 329 kts | 271° |
| 2026-05-04 17:16 | 36.09667 | -87.22179 | 16618 ft | 333 kts | 263° |
| 2026-05-04 17:16 | 36.08147 | -87.30653 | 18943 ft | 336 kts | 257° |
| 2026-05-04 17:17 | 36.07584 | -87.33432 | 19868 ft | 331 kts | 258° |
| 2026-05-04 17:17 | 36.05895 | -87.41785 | 21853 ft | 338 kts | 258° |
| 2026-05-04 17:18 | 36.05324 | -87.44606 | 22474 ft | 341 kts | 258° |
| 2026-05-04 17:18 | 36.04166 | -87.50323 | 23659 ft | 346 kts | 258° |
| 2026-05-04 17:19 | 36.02986 | -87.56134 | 24762 ft | 352 kts | 258° |
| 2026-05-04 17:19 | 36.01788 | -87.62013 | 25765 ft | 358 kts | 259° |
| 2026-05-04 17:20 | 36.00553 | -87.68054 | 26707 ft | 364 kts | 258° |
| 2026-05-04 17:20 | 35.99297 | -87.74189 | 27644 ft | 369 kts | 258° |
| 2026-05-04 17:20 | 35.98664 | -87.77271 | 28099 ft | 372 kts | 258° |
| 2026-05-04 17:21 | 35.97382 | -87.83505 | 28951 ft | 377 kts | 258° |
| 2026-05-04 17:21 | 35.96084 | -87.89790 | 29767 ft | 382 kts | 259° |
| 2026-05-04 17:22 | 35.95421 | -87.92992 | 30147 ft | 385 kts | 259° |
| 2026-05-04 17:22 | 35.94761 | -87.96185 | 30539 ft | 387 kts | 259° |
| 2026-05-04 17:23 | 35.92733 | -88.05963 | 31607 ft | 395 kts | 258° |
| 2026-05-04 17:23 | 35.92050 | -88.09249 | 31951 ft | 397 kts | 258° |
| 2026-05-04 17:23 | 35.90664 | -88.15889 | 32594 ft | 401 kts | 258° |
| 2026-05-04 17:24 | 35.89968 | -88.19209 | 32865 ft | 403 kts | 258° |
| 2026-05-04 17:24 | 35.88251 | -88.29482 | 33658 ft | 406 kts | 265° |
| 2026-05-04 17:25 | 35.87953 | -88.32935 | 33889 ft | 407 kts | 267° |
| 2026-05-04 17:25 | 35.87466 | -88.40013 | 34316 ft | 410 kts | 267° |
| 2026-05-04 17:26 | 35.86979 | -88.47115 | 34746 ft | 411 kts | 267° |
| 2026-05-04 17:26 | 35.86252 | -88.57645 | 35446 ft | 407 kts | 268° |
| 2026-05-04 17:27 | 35.85763 | -88.64669 | 35809 ft | 406 kts | 268° |
| 2026-05-04 17:27 | 35.85274 | -88.71600 | 36211 ft | 404 kts | 267° |
| 2026-05-04 17:28 | 35.84730 | -88.78540 | 36649 ft | 403 kts | 265° |
| 2026-05-04 17:29 | 35.82982 | -88.88759 | 37321 ft | 404 kts | 257° |
| 2026-05-04 17:29 | 35.80192 | -88.98642 | 37819 ft | 405 kts | 254° |
| 2026-05-04 17:30 | 35.77281 | -89.08455 | 37945 ft | 404 kts | 255° |
| 2026-05-04 17:31 | 35.75326 | -89.15018 | 37951 ft | 404 kts | 255° |
| 2026-05-04 17:32 | 35.70478 | -89.31221 | 37929 ft | 403 kts | 255° |
| 2026-05-04 17:33 | 35.66573 | -89.44204 | 37923 ft | 403 kts | 255° |
| 2026-05-04 17:34 | 35.62663 | -89.57150 | 37924 ft | 402 kts | 256° |
| 2026-05-04 17:35 | 35.57767 | -89.73274 | 37924 ft | 402 kts | 255° |
| 2026-05-04 17:36 | 35.55812 | -89.79684 | 37928 ft | 401 kts | 255° |
| 2026-05-04 17:36 | 35.53856 | -89.86090 | 37926 ft | 402 kts | 255° |
| 2026-05-04 17:37 | 35.51882 | -89.92528 | 37927 ft | 401 kts | 256° |
| 2026-05-04 17:37 | 35.49916 | -89.98934 | 37923 ft | 401 kts | 256° |
| 2026-05-04 17:38 | 35.47953 | -90.05316 | 37932 ft | 399 kts | 256° |
| 2026-05-04 17:38 | 35.46002 | -90.11646 | 37930 ft | 397 kts | 256° |
| 2026-05-04 17:39 | 35.43061 | -90.21160 | 37930 ft | 397 kts | 256° |
| 2026-05-04 17:39 | 35.41103 | -90.27483 | 37931 ft | 397 kts | 256° |
| 2026-05-04 17:40 | 35.39140 | -90.33800 | 37927 ft | 396 kts | 256° |
| 2026-05-04 17:40 | 35.37170 | -90.40129 | 37925 ft | 395 kts | 257° |
| 2026-05-04 17:41 | 35.35205 | -90.46427 | 37918 ft | 395 kts | 257° |
| 2026-05-04 17:41 | 35.33260 | -90.52649 | 37919 ft | 394 kts | 257° |
| 2026-05-04 17:42 | 35.31291 | -90.58926 | 37919 ft | 394 kts | 257° |
| 2026-05-04 17:42 | 35.29332 | -90.65170 | 37909 ft | 393 kts | 257° |
| 2026-05-04 17:43 | 35.27361 | -90.71442 | 37916 ft | 392 kts | 257° |
| 2026-05-04 17:43 | 35.25391 | -90.77689 | 37932 ft | 390 kts | 257° |
| 2026-05-04 17:44 | 35.23444 | -90.83852 | 37932 ft | 390 kts | 257° |
| 2026-05-04 17:44 | 35.21475 | -90.90065 | 37921 ft | 389 kts | 257° |
| 2026-05-04 17:45 | 35.20499 | -90.93140 | 38031 ft | 389 kts | 258° |
| 2026-05-04 17:45 | 35.19529 | -90.96199 | 37973 ft | 388 kts | 258° |
| 2026-05-04 17:45 | 35.17579 | -91.02338 | 37939 ft | 387 kts | 257° |
| 2026-05-04 17:46 | 35.15637 | -91.08442 | 37928 ft | 386 kts | 257° |
| 2026-05-04 17:46 | 35.13699 | -91.14500 | 37931 ft | 385 kts | 257° |
| 2026-05-04 17:47 | 35.11747 | -91.20592 | 37927 ft | 386 kts | 258° |
| 2026-05-04 17:47 | 35.09799 | -91.26679 | 37919 ft | 386 kts | 258° |
| 2026-05-04 17:48 | 35.07848 | -91.32761 | 37918 ft | 386 kts | 258° |
| 2026-05-04 17:48 | 35.05879 | -91.38867 | 37920 ft | 386 kts | 258° |
| 2026-05-04 17:49 | 35.03913 | -91.44965 | 37919 ft | 384 kts | 258° |
| 2026-05-04 17:49 | 35.01957 | -91.51020 | 37921 ft | 382 kts | 258° |
| 2026-05-04 17:50 | 34.99989 | -91.57087 | 37929 ft | 384 kts | 258° |
| 2026-05-04 17:50 | 34.98035 | -91.63115 | 37926 ft | 380 kts | 258° |
| 2026-05-04 17:51 | 34.96067 | -91.69160 | 37920 ft | 382 kts | 258° |
| 2026-05-04 17:51 | 34.94111 | -91.75181 | 37924 ft | 383 kts | 258° |
| 2026-05-04 17:52 | 34.92132 | -91.81252 | 37924 ft | 381 kts | 258° |
| 2026-05-04 17:52 | 34.90170 | -91.87239 | 37921 ft | 380 kts | 258° |
| 2026-05-04 17:53 | 34.88215 | -91.93205 | 37924 ft | 379 kts | 259° |
| 2026-05-04 17:53 | 34.86261 | -91.99165 | 37937 ft | 378 kts | 259° |
| 2026-05-04 17:54 | 34.84307 | -92.05120 | 37934 ft | 378 kts | 258° |
| 2026-05-04 17:54 | 34.82343 | -92.11081 | 37944 ft | 377 kts | 258° |
| 2026-05-04 17:55 | 34.80381 | -92.16985 | 37942 ft | 377 kts | 258° |
| 2026-05-04 17:55 | 34.78366 | -92.22851 | 37940 ft | 375 kts | 258° |
| 2026-05-04 17:56 | 34.76355 | -92.28698 | 37937 ft | 376 kts | 259° |
| 2026-05-04 17:56 | 34.74352 | -92.34529 | 37935 ft | 374 kts | 259° |
| 2026-05-04 17:57 | 34.72349 | -92.40345 | 37942 ft | 373 kts | 259° |
| 2026-05-04 17:57 | 34.70330 | -92.46203 | 37940 ft | 374 kts | 259° |
| 2026-05-04 17:58 | 34.68325 | -92.52011 | 37939 ft | 371 kts | 259° |
| 2026-05-04 17:58 | 34.66311 | -92.57832 | 37940 ft | 372 kts | 259° |
| 2026-05-04 17:59 | 34.64310 | -92.63625 | 37931 ft | 370 kts | 259° |
| 2026-05-04 18:00 | 34.61301 | -92.72280 | 37921 ft | 369 kts | 259° |
| 2026-05-04 18:00 | 34.59296 | -92.78049 | 37917 ft | 369 kts | 259° |
| 2026-05-04 18:01 | 34.57286 | -92.83813 | 37920 ft | 370 kts | 259° |
| 2026-05-04 18:01 | 34.55286 | -92.89532 | 37924 ft | 366 kts | 259° |
| 2026-05-04 18:02 | 34.52287 | -92.98090 | 37928 ft | 367 kts | 260° |
| 2026-05-04 18:02 | 34.50280 | -93.03818 | 37937 ft | 367 kts | 259° |
| 2026-05-04 18:03 | 34.48286 | -93.09491 | 37940 ft | 367 kts | 260° |
| 2026-05-04 18:03 | 34.46299 | -93.15142 | 37944 ft | 362 kts | 259° |
| 2026-05-04 18:04 | 34.44298 | -93.20807 | 37938 ft | 364 kts | 260° |
| 2026-05-04 18:05 | 34.41301 | -93.29291 | 37938 ft | 363 kts | 260° |
| 2026-05-04 18:05 | 34.39301 | -93.34942 | 37939 ft | 362 kts | 259° |
| 2026-05-04 18:06 | 34.36302 | -93.43384 | 37936 ft | 361 kts | 260° |
| 2026-05-04 18:06 | 34.34304 | -93.48997 | 37925 ft | 359 kts | 260° |
| 2026-05-04 18:07 | 34.32313 | -93.54569 | 37921 ft | 361 kts | 259° |
| 2026-05-04 18:07 | 34.30315 | -93.60180 | 37925 ft | 361 kts | 260° |
| 2026-05-04 18:08 | 34.28292 | -93.65836 | 37927 ft | 360 kts | 259° |
| 2026-05-04 18:08 | 34.26319 | -93.71307 | 37925 ft | 350 kts | 261° |
| 2026-05-04 18:09 | 34.22450 | -93.82121 | 37921 ft | 348 kts | 260° |
| 2026-05-04 18:10 | 34.20515 | -93.87494 | 37923 ft | 348 kts | 260° |
| 2026-05-04 18:10 | 34.18721 | -93.92918 | 37923 ft | 341 kts | 263° |
| 2026-05-04 18:11 | 34.17052 | -93.98342 | 37924 ft | 343 kts | 263° |
| 2026-05-04 18:11 | 34.15390 | -94.03770 | 37923 ft | 341 kts | 262° |
| 2026-05-04 18:12 | 34.13726 | -94.09177 | 37929 ft | 342 kts | 263° |
| 2026-05-04 18:12 | 34.12061 | -94.14587 | 37925 ft | 339 kts | 263° |
| 2026-05-04 18:13 | 34.10405 | -94.19964 | 37929 ft | 340 kts | 262° |
| 2026-05-04 18:14 | 34.07897 | -94.28089 | 37935 ft | 341 kts | 262° |
| 2026-05-04 18:14 | 34.06235 | -94.33477 | 37932 ft | 340 kts | 262° |
| 2026-05-04 18:15 | 34.02890 | -94.44257 | 37929 ft | 339 kts | 262° |
| 2026-05-04 18:16 | 34.01215 | -94.49641 | 37929 ft | 342 kts | 262° |
| 2026-05-04 18:16 | 33.99541 | -94.55022 | 37927 ft | 340 kts | 263° |
| 2026-05-04 18:17 | 33.97018 | -94.63108 | 37924 ft | 341 kts | 263° |
| 2026-05-04 18:18 | 33.94489 | -94.71200 | 37912 ft | 340 kts | 262° |
| 2026-05-04 18:18 | 33.92809 | -94.76555 | 37903 ft | 341 kts | 262° |
| 2026-05-04 18:19 | 33.90274 | -94.84618 | 37906 ft | 342 kts | 262° |
| 2026-05-04 18:19 | 33.88590 | -94.89961 | 37903 ft | 341 kts | 262° |
| 2026-05-04 18:20 | 33.86891 | -94.95355 | 37895 ft | 344 kts | 262° |
| 2026-05-04 18:20 | 33.86031 | -94.98083 | 37580 ft | 343 kts | 262° |
| 2026-05-04 18:20 | 33.85177 | -95.00784 | 37267 ft | 339 kts | 261° |
| 2026-05-04 18:21 | 33.84330 | -95.03451 | 36949 ft | 335 kts | 262° |
| 2026-05-04 18:21 | 33.83493 | -95.06091 | 36574 ft | 332 kts | 262° |
| 2026-05-04 18:21 | 33.82665 | -95.08711 | 36152 ft | 332 kts | 262° |
| 2026-05-04 18:21 | 33.81826 | -95.11354 | 35594 ft | 333 kts | 262° |